Time;durP1;ratioP1;P1;durP2;ratioP2;P2;SDS_P1;SDS_P2;PMS_P1;PMS_P2;Temp;Humidity;BMP_temperature;BMP_pressure;BME280_temperature;BME280_humidity;BME280_pressure;Samples;Min_cycle;Max_cycle;Signal;HPM_P1;HPM_P2
2023/06/06 00:00:53;;;;;;;2.60;2.40;;;16.60;99.90;;;;;;5150886;27;20172;-65
2023/06/06 00:03:20;;;;;;;2.60;2.27;;;16.50;99.90;;;;;;5150563;27;20176;-65
2023/06/06 00:05:48;;;;;;;2.57;2.30;;;16.40;99.90;;;;;;5150960;27;20411;-64
2023/06/06 00:08:13;;;;;;;2.87;2.53;;;16.40;99.90;;;;;;5150986;27;20455;-65
2023/06/06 00:10:39;;;;;;;3.00;2.27;;;16.40;99.90;;;;;;5151046;27;20499;-64
2023/06/06 00:13:05;;;;;;;2.20;2.00;;;16.30;99.90;;;;;;5150668;27;20178;-64
2023/06/06 00:15:31;;;;;;;12.93;2.00;;;16.30;99.90;;;;;;5150909;27;20546;-64
2023/06/06 00:17:59;;;;;;;2.40;2.20;;;16.20;99.90;;;;;;5150905;27;20222;-67
2023/06/06 00:20:25;;;;;;;2.50;2.30;;;16.10;99.90;;;;;;5150732;27;20415;-65
2023/06/06 00:22:53;;;;;;;3.53;2.33;;;16.10;99.90;;;;;;5151420;27;20489;-65
2023/06/06 00:25:19;;;;;;;2.60;2.13;;;16.00;99.90;;;;;;5151534;27;20585;-65
2023/06/06 00:27:44;;;;;;;2.60;2.40;;;16.00;99.90;;;;;;5150351;27;21095;-65
2023/06/06 00:30:11;;;;;;;2.37;2.17;;;16.10;99.90;;;;;;5150489;27;20954;-65
2023/06/06 00:32:36;;;;;;;2.70;2.50;;;16.10;99.90;;;;;;5150375;27;20190;-65
2023/06/06 00:35:02;;;;;;;4.27;2.60;;;16.00;99.90;;;;;;5150323;27;20809;-64
2023/06/06 00:37:28;;;;;;;3.10;2.57;;;15.90;99.90;;;;;;5150356;27;20582;-65
2023/06/06 00:39:54;;;;;;;2.47;2.27;;;15.80;99.90;;;;;;5150559;27;20814;-64
2023/06/06 00:42:19;;;;;;;2.67;2.43;;;15.90;99.90;;;;;;5150496;27;20658;-64
2023/06/06 00:44:45;;;;;;;2.47;2.27;;;15.80;99.90;;;;;;5150235;27;20657;-64
2023/06/06 00:47:12;;;;;;;2.73;2.17;;;15.80;99.90;;;;;;5150197;27;20206;-64
2023/06/06 00:49:38;;;;;;;3.20;2.83;;;15.70;99.90;;;;;;5150142;27;20178;-65
2023/06/06 00:52:04;;;;;;;2.53;2.30;;;15.70;99.90;;;;;;5150043;27;20446;-64
2023/06/06 00:54:32;;;;;;;2.30;2.10;;;15.60;99.90;;;;;;5150219;27;20473;-64
2023/06/06 00:56:57;;;;;;;4.50;2.33;;;15.60;99.90;;;;;;5150009;27;20503;-65
2023/06/06 00:59:24;;;;;;;2.50;2.30;;;15.50;99.90;;;;;;5149923;27;20451;-65
2023/06/06 01:01:50;;;;;;;3.17;2.70;;;15.40;99.90;;;;;;5131147;27;20658;-65
2023/06/06 01:04:17;;;;;;;2.30;2.10;;;15.40;99.90;;;;;;5150261;27;20791;-65
2023/06/06 01:06:43;;;;;;;2.90;2.23;;;15.30;99.90;;;;;;5149539;27;20439;-64
2023/06/06 01:09:11;;;;;;;4.30;2.40;;;15.10;99.90;;;;;;5149857;27;20410;-65
2023/06/06 01:12:07;;;;;;;2.83;2.63;;;15.00;99.90;;;;;;5149577;27;20417;-64
2023/06/06 01:14:57;;;;;;;3.87;2.90;;;15.10;99.90;;;;;;5149538;27;20432;-65
2023/06/06 01:17:27;;;;;;;3.50;2.50;;;15.00;99.90;;;;;;5149257;27;20462;-64
2023/06/06 01:19:56;;;;;;;3.30;2.73;;;14.90;99.90;;;;;;5149368;27;20402;-64
2023/06/06 01:22:23;;;;;;;3.30;2.90;;;14.70;99.90;;;;;;5149298;27;20414;-65
2023/06/06 01:24:53;;;;;;;2.73;2.47;;;14.80;99.90;;;;;;5152013;27;20453;-64
2023/06/06 01:27:21;;;;;;;2.70;2.50;;;14.50;99.90;;;;;;5153292;27;20457;-65
2023/06/06 01:29:47;;;;;;;3.00;2.23;;;14.40;99.90;;;;;;5154821;27;20422;-64
2023/06/06 01:32:30;;;;;;;3.00;2.70;;;14.50;99.90;;;;;;5153039;27;20505;-65
2023/06/06 01:35:00;;;;;;;3.27;2.70;;;14.30;99.90;;;;;;5153023;27;20460;-65
2023/06/06 01:37:48;;;;;;;7.03;3.83;;;14.30;99.90;;;;;;5152705;27;20511;-64
2023/06/06 01:40:17;;;;;;;3.10;2.30;;;14.20;99.90;;;;;;5152979;27;20402;-64
2023/06/06 01:42:46;;;;;;;2.30;2.10;;;14.20;99.90;;;;;;5152931;27;20456;-64
2023/06/06 01:45:14;;;;;;;3.00;2.37;;;14.30;99.90;;;;;;5153335;27;20406;-64
2023/06/06 01:47:41;;;;;;;5.37;2.47;;;14.20;99.90;;;;;;5153071;27;20927;-64
2023/06/06 01:50:08;;;;;;;10.17;2.73;;;14.00;99.90;;;;;;5152711;27;20402;-65
2023/06/06 01:52:35;;;;;;;3.70;3.17;;;14.00;99.90;;;;;;5152685;27;20411;-64
2023/06/06 01:55:01;;;;;;;4.00;3.10;;;14.00;99.90;;;;;;5152690;27;20440;-64
2023/06/06 01:57:27;;;;;;;3.67;2.60;;;14.00;99.90;;;;;;5152374;27;20468;-65
2023/06/06 01:59:53;;;;;;;2.73;2.50;;;13.80;99.90;;;;;;5152649;27;20442;-66
2023/06/06 02:02:18;;;;;;;3.60;3.00;;;13.70;99.90;;;;;;5152387;27;20965;-64
2023/06/06 02:04:44;;;;;;;5.33;3.20;;;13.70;99.90;;;;;;5152235;27;20418;-64
2023/06/06 02:07:11;;;;;;;2.83;2.60;;;13.70;99.90;;;;;;5152173;27;20204;-64
2023/06/06 02:09:36;;;;;;;3.33;3.03;;;13.70;99.90;;;;;;5152162;27;20176;-64
2023/06/06 02:12:02;;;;;;;4.17;2.70;;;13.70;99.90;;;;;;5152152;27;20433;-65
2023/06/06 02:14:28;;;;;;;2.50;2.30;;;13.70;99.90;;;;;;5152153;27;20550;-64
2023/06/06 02:16:54;;;;;;;3.00;2.70;;;13.70;99.90;;;;;;5133365;27;20473;-64
2023/06/06 02:19:19;;;;;;;3.33;2.80;;;13.70;99.90;;;;;;5152055;27;20969;-65
2023/06/06 02:21:47;;;;;;;3.40;2.90;;;13.60;99.90;;;;;;5152043;27;20177;-64
2023/06/06 02:24:13;;;;;;;3.37;2.83;;;13.60;99.90;;;;;;5152052;27;20180;-65
2023/06/06 02:26:41;;;;;;;3.63;2.47;;;13.60;99.90;;;;;;5151858;27;20464;-65
2023/06/06 02:29:07;;;;;;;4.60;2.87;;;13.60;99.90;;;;;;5152198;27;20552;-65
2023/06/06 02:31:33;;;;;;;2.80;2.60;;;13.60;99.90;;;;;;5151813;27;20418;-65
2023/06/06 02:33:58;;;;;;;2.83;2.63;;;13.50;99.90;;;;;;5151802;27;20184;-65
2023/06/06 02:36:25;;;;;;;3.57;3.27;;;13.50;99.90;;;;;;5151525;27;20211;-64
2023/06/06 02:38:51;;;;;;;3.10;2.90;;;13.50;99.90;;;;;;5151652;27;20184;-64
2023/06/06 02:41:16;;;;;;;3.47;3.10;;;13.40;99.90;;;;;;5151543;27;20773;-65
2023/06/06 02:43:42;;;;;;;4.17;3.00;;;13.40;99.90;;;;;;5151582;27;20184;-65
2023/06/06 02:46:07;;;;;;;4.60;3.23;;;13.30;99.90;;;;;;5151405;27;20728;-64
2023/06/06 02:48:33;;;;;;;2.97;2.70;;;13.20;99.90;;;;;;5151533;27;20196;-64
2023/06/06 02:50:59;;;;;;;3.93;2.73;;;13.30;99.90;;;;;;5151295;27;20218;-65
2023/06/06 02:53:27;;;;;;;3.13;2.80;;;13.30;99.90;;;;;;5133013;27;20668;-64
2023/06/06 02:55:52;;;;;;;4.83;3.27;;;13.30;99.90;;;;;;5151817;27;20679;-64
2023/06/06 02:58:30;;;;;;;4.40;2.93;;;13.30;99.90;;;;;;5151567;27;20464;-64
2023/06/06 03:00:57;;;;;;;3.63;3.30;;;13.20;99.90;;;;;;5151330;27;20633;-64
2023/06/06 03:03:24;;;;;;;2.50;2.30;;;13.20;99.90;;;;;;5151231;27;20437;-65
2023/06/06 03:05:51;;;;;;;3.30;2.70;;;13.10;99.90;;;;;;5151028;27;20497;-65
2023/06/06 03:08:20;;;;;;;3.23;2.90;;;13.10;99.90;;;;;;5151018;27;20441;-65
2023/06/06 03:10:46;;;;;;;4.70;3.00;;;13.00;99.90;;;;;;5151216;27;20478;-64
2023/06/06 03:13:12;;;;;;;5.00;2.80;;;13.00;99.90;;;;;;5151006;27;20424;-65
2023/06/06 03:15:40;;;;;;;3.30;3.00;;;13.00;99.90;;;;;;5151021;27;20437;-65
2023/06/06 03:18:12;;;;;;;3.30;3.00;;;13.00;99.90;;;;;;5151036;27;20500;-65
2023/06/06 03:20:40;;;;;;;3.20;2.90;;;13.00;99.90;;;;;;5133146;27;20945;-64
2023/06/06 03:23:07;;;;;;;3.90;3.10;;;13.00;99.90;;;;;;5150866;27;20439;-65
2023/06/06 03:25:33;;;;;;;4.50;2.77;;;12.90;99.90;;;;;;5150957;27;20556;-65
2023/06/06 03:28:00;;;;;;;3.87;3.33;;;12.90;99.90;;;;;;5150622;27;20457;-65
2023/06/06 03:30:25;;;;;;;5.70;3.73;;;12.80;99.90;;;;;;5150715;27;20458;-64
2023/06/06 03:32:51;;;;;;;3.27;2.77;;;12.70;99.90;;;;;;5150939;27;20976;-64
2023/06/06 03:35:18;;;;;;;3.47;3.10;;;12.70;99.90;;;;;;5151182;27;20207;-63
2023/06/06 03:37:44;;;;;;;3.10;2.80;;;12.70;99.90;;;;;;5151076;27;20460;-64
2023/06/06 03:40:11;;;;;;;3.23;3.00;;;12.60;99.90;;;;;;5151384;27;20420;-65
2023/06/06 03:42:37;;;;;;;3.50;3.20;;;12.70;99.90;;;;;;5151148;27;20414;-64
2023/06/06 03:45:03;;;;;;;3.63;3.10;;;12.70;99.90;;;;;;5151247;27;20512;-64
2023/06/06 03:47:29;;;;;;;3.50;3.20;;;12.60;99.90;;;;;;5150410;27;20207;-64
2023/06/06 03:49:55;;;;;;;3.30;3.00;;;12.60;99.90;;;;;;5150705;27;20418;-64
2023/06/06 03:52:20;;;;;;;4.27;3.07;;;12.70;99.90;;;;;;5150507;27;20470;-63
2023/06/06 03:54:46;;;;;;;5.20;2.90;;;12.80;99.90;;;;;;5149807;27;20179;-64
2023/06/06 03:57:11;;;;;;;3.30;3.00;;;12.70;99.90;;;;;;5149184;27;20298;-63
2023/06/06 03:59:37;;;;;;;5.90;3.00;;;12.80;99.90;;;;;;5149241;27;20184;-64
2023/06/06 04:02:03;;;;;;;3.20;2.90;;;12.80;99.90;;;;;;5149231;27;20181;-64
2023/06/06 04:04:32;;;;;;;3.13;2.83;;;12.80;99.90;;;;;;5149266;27;20176;-64
2023/06/06 04:06:58;;;;;;;4.17;3.53;;;12.90;99.90;;;;;;5130570;27;20446;-65
2023/06/06 04:09:24;;;;;;;8.23;3.30;;;12.90;99.90;;;;;;5149079;27;21069;-65
2023/06/06 04:11:49;;;;;;;4.03;3.33;;;13.00;99.90;;;;;;5148883;27;20428;-64
2023/06/06 04:14:15;;;;;;;3.40;3.10;;;13.10;99.90;;;;;;5148848;27;20508;-64
2023/06/06 04:16:40;;;;;;;4.63;2.93;;;13.10;99.90;;;;;;5148570;27;20219;-64
2023/06/06 04:19:06;;;;;;;4.93;3.00;;;13.20;99.90;;;;;;5130113;27;20705;-64
2023/06/06 04:21:32;;;;;;;3.47;3.17;;;13.20;99.90;;;;;;5148714;27;20176;-65
2023/06/06 04:23:59;;;;;;;5.10;3.40;;;13.20;99.90;;;;;;5149015;27;20557;-64
2023/06/06 04:26:31;;;;;;;3.50;3.17;;;13.30;99.90;;;;;;5148810;27;20437;-64
2023/06/06 04:28:59;;;;;;;3.60;3.30;;;13.30;99.90;;;;;;5149061;27;20799;-64
2023/06/06 04:31:28;;;;;;;3.17;2.87;;;13.40;99.90;;;;;;5149288;27;20421;-65
2023/06/06 04:33:55;;;;;;;4.70;3.90;;;13.50;99.90;;;;;;5149628;27;20410;-65
2023/06/06 04:36:24;;;;;;;3.67;2.40;;;13.50;99.90;;;;;;5149246;27;20472;-64
2023/06/06 04:38:50;;;;;;;2.87;2.63;;;13.60;99.90;;;;;;5149219;27;20512;-64
2023/06/06 04:41:16;;;;;;;9.63;3.33;;;13.70;99.90;;;;;;5149155;27;20429;-63
2023/06/06 04:43:49;;;;;;;4.50;3.73;;;13.80;99.90;;;;;;5148930;27;20418;-64
2023/06/06 04:46:24;;;;;;;3.63;3.33;;;13.90;99.90;;;;;;5149103;27;20435;-64
2023/06/06 04:48:55;;;;;;;6.20;3.60;;;14.00;99.90;;;;;;5148992;27;20410;-64
2023/06/06 04:51:33;;;;;;;3.57;3.10;;;14.10;99.90;;;;;;5149006;27;20428;-64
2023/06/06 04:53:59;;;;;;;3.13;2.90;;;14.10;99.90;;;;;;5130194;27;20457;-64
2023/06/06 04:56:29;;;;;;;4.37;2.80;;;14.20;99.90;;;;;;5148189;27;20865;-65
2023/06/06 04:58:56;;;;;;;3.57;3.27;;;14.20;99.90;;;;;;5149822;27;20488;-64
2023/06/06 05:01:23;;;;;;;4.57;3.23;;;14.40;99.90;;;;;;5152254;27;20422;-65
2023/06/06 05:03:49;;;;;;;4.63;3.47;;;14.40;99.90;;;;;;5152171;27;20426;-63
2023/06/06 05:06:15;;;;;;;8.90;3.80;;;14.50;99.90;;;;;;5152238;27;20476;-64
2023/06/06 05:08:44;;;;;;;3.17;2.90;;;14.50;99.90;;;;;;5152014;27;20846;-65
2023/06/06 05:11:13;;;;;;;3.97;3.50;;;14.50;99.90;;;;;;5152054;27;20184;-65
2023/06/06 05:13:39;;;;;;;4.30;3.90;;;14.60;99.90;;;;;;5152155;27;20482;-65
2023/06/06 05:16:05;;;;;;;5.13;4.00;;;14.70;99.90;;;;;;5151748;27;21097;-65
2023/06/06 05:18:31;;;;;;;6.07;4.50;;;14.80;99.90;;;;;;5151899;27;20426;-64
2023/06/06 05:21:01;;;;;;;6.43;4.23;;;15.00;99.90;;;;;;5151676;27;20406;-64
2023/06/06 05:23:30;;;;;;;6.10;3.80;;;15.00;99.90;;;;;;5152080;27;20215;-64
2023/06/06 05:25:58;;;;;;;4.13;3.80;;;15.10;99.90;;;;;;5151730;27;20431;-64
2023/06/06 05:28:29;;;;;;;3.47;3.17;;;15.30;99.90;;;;;;5151631;27;20422;-64
2023/06/06 05:30:58;;;;;;;5.93;3.30;;;15.40;99.90;;;;;;5151991;27;20398;-63
2023/06/06 05:33:26;;;;;;;4.63;4.13;;;15.40;99.90;;;;;;5132666;27;20414;-64
2023/06/06 05:35:55;;;;;;;5.87;3.83;;;15.50;99.90;;;;;;5132737;27;20417;-63
2023/06/06 05:38:21;;;;;;;3.73;3.43;;;15.60;99.90;;;;;;5151484;27;20441;-64
2023/06/06 05:40:47;;;;;;;4.27;3.87;;;15.70;99.90;;;;;;5151611;27;20415;-64
2023/06/06 05:43:14;;;;;;;4.50;4.03;;;15.90;99.90;;;;;;5151505;27;20173;-65
2023/06/06 05:45:40;;;;;;;7.27;3.97;;;15.90;99.90;;;;;;5151616;27;20189;-65
2023/06/06 05:48:06;;;;;;;6.17;4.10;;;16.00;99.90;;;;;;5151289;27;20428;-64
2023/06/06 05:50:31;;;;;;;5.97;4.13;;;16.00;99.90;;;;;;5151638;27;20444;-64
2023/06/06 05:52:58;;;;;;;7.50;4.30;;;16.10;99.90;;;;;;5132544;27;20445;-63
2023/06/06 05:55:41;;;;;;;5.50;3.57;;;16.10;99.90;;;;;;5151185;27;20499;-64
2023/06/06 05:58:07;;;;;;;8.83;4.30;;;16.20;99.90;;;;;;5150978;27;21024;-65
2023/06/06 06:00:35;;;;;;;6.53;3.73;;;16.30;99.90;;;;;;5151158;27;20446;-64
2023/06/06 06:03:01;;;;;;;4.13;3.63;;;16.40;99.90;;;;;;5151174;27;20176;-66
2023/06/06 06:05:28;;;;;;;6.83;3.57;;;16.50;99.90;;;;;;5150969;27;21061;-65
2023/06/06 06:08:02;;;;;;;3.67;3.37;;;16.50;99.90;;;;;;5151091;27;20777;-64
2023/06/06 06:10:33;;;;;;;4.20;3.80;;;16.60;99.90;;;;;;5150552;27;20423;-64
2023/06/06 06:13:00;;;;;;;6.63;3.87;;;16.70;99.90;;;;;;5150979;27;20448;-64
2023/06/06 06:15:26;;;;;;;5.73;3.70;;;16.80;99.90;;;;;;5150625;27;21016;-64
2023/06/06 06:17:52;;;;;;;6.47;3.90;;;17.00;99.90;;;;;;5150693;27;20476;-64
2023/06/06 06:20:19;;;;;;;3.80;3.30;;;17.10;99.90;;;;;;5150670;27;21272;-65
2023/06/06 06:22:46;;;;;;;6.93;3.90;;;17.20;99.90;;;;;;5150588;27;20404;-65
2023/06/06 06:25:16;;;;;;;8.03;4.37;;;17.30;99.90;;;;;;5150648;27;20458;-65
2023/06/06 06:27:43;;;;;;;4.20;3.80;;;17.50;99.90;;;;;;5150442;27;20483;-64
2023/06/06 06:30:10;;;;;;;5.57;3.70;;;17.50;99.90;;;;;;5150353;27;20875;-64
2023/06/06 06:32:37;;;;;;;6.53;3.90;;;17.50;99.90;;;;;;5150981;27;20523;-65
2023/06/06 06:35:04;;;;;;;7.63;3.50;;;17.60;99.90;;;;;;5151284;27;20420;-64
2023/06/06 06:37:30;;;;;;;4.40;3.37;;;17.60;99.90;;;;;;5151102;27;20471;-65
2023/06/06 06:39:56;;;;;;;5.97;3.73;;;17.60;99.90;;;;;;5151217;27;20416;-65
2023/06/06 06:42:22;;;;;;;7.10;3.70;;;17.70;99.90;;;;;;5151099;27;20439;-65
2023/06/06 06:44:48;;;;;;;5.03;3.50;;;17.70;99.90;;;;;;5150918;27;20447;-64
2023/06/06 06:47:14;;;;;;;4.10;3.50;;;17.80;99.90;;;;;;5150953;27;20853;-63
2023/06/06 06:49:41;;;;;;;3.80;3.40;;;17.80;99.90;;;;;;5151033;27;20508;-64
2023/06/06 06:52:15;;;;;;;4.87;3.30;;;17.90;99.90;;;;;;5132447;27;20255;-64
2023/06/06 06:54:54;;;;;;;5.40;3.50;;;17.90;99.90;;;;;;5151072;27;20442;-65
2023/06/06 06:57:20;;;;;;;3.50;2.70;;;17.90;99.90;;;;;;5131955;27;20472;-65
2023/06/06 06:59:48;;;;;;;6.00;3.40;;;18.00;99.90;;;;;;5150939;27;20462;-64
2023/06/06 07:02:13;;;;;;;8.93;3.67;;;18.10;99.90;;;;;;5150802;27;21033;-64
2023/06/06 07:04:45;;;;;;;5.27;3.73;;;18.20;99.90;;;;;;5132319;27;20432;-64
2023/06/06 07:07:15;;;;;;;7.43;3.40;;;18.30;99.90;;;;;;5150647;27;20288;-64
2023/06/06 07:09:40;;;;;;;6.30;3.80;;;18.50;99.90;;;;;;5150437;27;20864;-64
2023/06/06 07:12:07;;;;;;;4.30;3.17;;;18.70;99.90;;;;;;5150485;27;20419;-65
2023/06/06 07:14:33;;;;;;;5.43;3.00;;;18.70;99.90;;;;;;5150536;27;20190;-64
2023/06/06 07:16:59;;;;;;;8.80;3.67;;;18.70;99.90;;;;;;5150455;27;20481;-63
2023/06/06 07:19:26;;;;;;;5.07;3.60;;;18.90;99.90;;;;;;5150708;27;20442;-63
2023/06/06 07:21:52;;;;;;;6.83;3.73;;;19.00;99.90;;;;;;5149668;27;20607;-64
2023/06/06 07:24:20;;;;;;;4.80;3.33;;;19.00;99.90;;;;;;5150433;27;20452;-64
2023/06/06 07:26:45;;;;;;;5.87;3.37;;;19.00;99.90;;;;;;5150255;27;20225;-64
2023/06/06 07:29:11;;;;;;;8.60;3.20;;;19.10;99.90;;;;;;5150404;27;20417;-64
2023/06/06 07:31:38;;;;;;;4.40;3.03;;;19.20;99.90;;;;;;5150776;27;20280;-64
2023/06/06 07:34:04;;;;;;;2.90;2.63;;;19.30;99.90;;;;;;5151038;27;20199;-72
2023/06/06 07:36:30;;;;;;;4.73;3.00;;;19.30;99.90;;;;;;5132342;27;20504;-71
2023/06/06 07:38:57;;;;;;;6.93;3.23;;;19.40;99.90;;;;;;5115125;27;20736;-71
2023/06/06 07:41:23;;;;;;;4.17;3.00;;;19.60;99.90;;;;;;5132323;27;20856;-71
2023/06/06 07:43:50;;;;;;;3.90;2.93;;;19.70;99.90;;;;;;5131876;27;20426;-71
2023/06/06 07:46:16;;;;;;;6.07;2.80;;;19.90;99.90;;;;;;5150787;27;20441;-71
2023/06/06 07:48:42;;;;;;;4.63;2.80;;;20.10;99.40;;;;;;5150830;27;20468;-71
2023/06/06 07:51:08;;;;;;;2.80;2.57;;;20.30;99.60;;;;;;5150428;27;20772;-71
2023/06/06 07:53:33;;;;;;;4.30;2.40;;;20.30;98.10;;;;;;5150381;27;20721;-71
2023/06/06 07:55:59;;;;;;;11.90;3.67;;;20.30;98.90;;;;;;5149834;27;20259;-71
2023/06/06 07:58:27;;;;;;;6.57;3.40;;;20.30;96.80;;;;;;5131245;27;20192;-71
2023/06/06 08:00:53;;;;;;;3.40;3.07;;;20.40;96.50;;;;;;5149781;27;20227;-70
2023/06/06 08:03:18;;;;;;;4.90;2.83;;;20.50;96.80;;;;;;5149616;27;20419;-71
2023/06/06 08:05:44;;;;;;;4.40;3.37;;;20.70;96.10;;;;;;5149475;27;20564;-70
2023/06/06 08:08:10;;;;;;;3.50;2.90;;;20.90;94.80;;;;;;5149442;27;20219;-69
2023/06/06 08:10:36;;;;;;;8.87;3.47;;;20.90;94.70;;;;;;5149453;27;20196;-71
2023/06/06 08:13:03;;;;;;;6.10;3.10;;;20.90;94.80;;;;;;5131029;27;20881;-70
2023/06/06 08:15:29;;;;;;;5.47;3.30;;;20.90;94.20;;;;;;5130725;27;20446;-71
2023/06/06 08:17:54;;;;;;;11.27;2.93;;;20.90;92.70;;;;;;5149386;27;20496;-71
2023/06/06 08:20:20;;;;;;;11.37;3.27;;;21.00;93.20;;;;;;5149425;27;20659;-71
2023/06/06 08:22:50;;;;;;;4.03;3.40;;;21.10;92.50;;;;;;5149539;27;20276;-71
2023/06/06 08:25:16;;;;;;;3.43;3.10;;;21.10;92.00;;;;;;5149320;27;20180;-70
2023/06/06 08:27:42;;;;;;;9.50;3.73;;;21.10;92.30;;;;;;5148859;27;20482;-70
2023/06/06 08:30:09;;;;;;;4.80;3.07;;;21.30;91.70;;;;;;5149199;27;20195;-71
2023/06/06 08:32:34;;;;;;;5.97;3.30;;;21.40;92.10;;;;;;5131579;27;20926;-71
2023/06/06 08:35:03;;;;;;;19.77;3.83;;;21.50;91.50;;;;;;5153666;27;20421;-69
2023/06/06 08:37:30;;;;;;;6.57;3.03;;;21.60;90.70;;;;;;5134681;27;20235;-70
2023/06/06 08:39:56;;;;;;;10.30;3.47;;;21.80;90.50;;;;;;5153651;27;20466;-70
2023/06/06 08:42:22;;;;;;;4.50;2.80;;;22.10;90.10;;;;;;5134933;27;20492;-70
2023/06/06 08:44:50;;;;;;;11.67;3.67;;;22.20;90.10;;;;;;5153929;27;20409;-71
2023/06/06 08:47:17;;;;;;;3.83;2.80;;;22.30;89.90;;;;;;5135001;27;20973;-72
2023/06/06 08:49:43;;;;;;;3.90;2.93;;;22.30;87.00;;;;;;5153822;27;20432;-70
2023/06/06 08:52:09;;;;;;;5.30;3.53;;;22.50;86.60;;;;;;5153873;27;20410;-70
2023/06/06 08:54:37;;;;;;;5.30;2.70;;;22.50;84.10;;;;;;5153877;27;20428;-70
2023/06/06 08:57:09;;;;;;;3.90;3.23;;;22.70;83.50;;;;;;5153832;27;20468;-70
2023/06/06 08:59:39;;;;;;;5.20;3.43;;;22.90;84.30;;;;;;5153755;27;20835;-71
2023/06/06 09:02:06;;;;;;;4.50;3.37;;;22.90;82.40;;;;;;5153820;27;20445;-70
2023/06/06 09:04:33;;;;;;;4.77;3.27;;;23.10;82.10;;;;;;5154392;27;20411;-71
2023/06/06 09:07:04;;;;;;;7.33;3.70;;;23.20;80.50;;;;;;5154034;27;20442;-71
2023/06/06 09:09:33;;;;;;;4.83;3.20;;;23.30;82.20;;;;;;5153721;27;20427;-71
2023/06/06 09:11:59;;;;;;;5.37;3.60;;;23.60;82.00;;;;;;5134960;27;20426;-71
2023/06/06 09:14:25;;;;;;;4.20;3.07;;;23.80;80.30;;;;;;5134215;27;20426;-71
2023/06/06 09:16:53;;;;;;;12.33;3.40;;;24.10;79.70;;;;;;5134113;27;20553;-71
2023/06/06 09:19:26;;;;;;;8.43;3.70;;;24.20;77.00;;;;;;5152680;27;20411;-71
2023/06/06 09:21:53;;;;;;;4.30;3.10;;;24.10;77.00;;;;;;5134303;27;20421;-71
2023/06/06 09:24:18;;;;;;;9.00;3.87;;;24.20;78.60;;;;;;5153350;27;20412;-71
2023/06/06 09:26:44;;;;;;;5.30;3.70;;;24.30;75.10;;;;;;5153385;27;20546;-72
2023/06/06 09:29:13;;;;;;;5.40;3.33;;;24.50;75.40;;;;;;5153549;27;20183;-71
2023/06/06 09:31:40;;;;;;;8.30;3.40;;;24.60;74.30;;;;;;5153344;27;20646;-71
2023/06/06 09:34:08;;;;;;;5.23;3.47;;;24.50;78.10;;;;;;5134373;27;20831;-70
2023/06/06 09:36:33;;;;;;;5.40;3.70;;;24.50;73.90;;;;;;5152967;27;20468;-71
2023/06/06 09:39:10;;;;;;;5.37;4.00;;;24.70;73.50;;;;;;5153186;27;20560;-71
2023/06/06 09:41:45;;;;;;;3.80;3.37;;;24.50;74.60;;;;;;5153006;27;20494;-71
2023/06/06 09:44:25;;;;;;;6.80;3.43;;;24.80;77.50;;;;;;5151527;27;20415;-70
2023/06/06 09:47:01;;;;;;;5.20;3.50;;;25.00;75.40;;;;;;5151966;27;20456;-71
2023/06/06 09:49:36;;;;;;;4.57;3.60;;;25.10;72.70;;;;;;5152602;27;20936;-72
2023/06/06 09:52:04;;;;;;;7.20;4.43;;;25.40;72.90;;;;;;5152238;27;20441;-71
2023/06/06 09:54:31;;;;;;;5.17;3.93;;;25.50;73.20;;;;;;5151969;27;20416;-71
2023/06/06 09:56:58;;;;;;;4.70;3.97;;;25.70;72.50;;;;;;5151872;27;20456;-71
2023/06/06 09:59:27;;;;;;;5.20;3.40;;;25.60;71.40;;;;;;5151968;27;20437;-71
2023/06/06 10:02:05;;;;;;;5.60;3.70;;;25.70;71.10;;;;;;5151561;27;20424;-71
2023/06/06 10:04:33;;;;;;;6.77;3.67;;;25.70;69.10;;;;;;5132295;27;20420;-71
2023/06/06 10:07:02;;;;;;;5.73;3.57;;;26.00;71.00;;;;;;5151152;27;20451;-71
2023/06/06 10:09:28;;;;;;;3.57;3.27;;;26.10;71.00;;;;;;5152288;27;20432;-71
2023/06/06 10:11:54;;;;;;;5.97;3.90;;;26.10;72.10;;;;;;5151701;27;20428;-70
2023/06/06 10:14:21;;;;;;;4.20;3.77;;;26.40;72.20;;;;;;5151574;27;20435;-71
2023/06/06 10:16:47;;;;;;;3.73;3.40;;;26.70;70.20;;;;;;5151387;27;20498;-71
2023/06/06 10:19:13;;;;;;;10.10;3.93;;;26.70;70.60;;;;;;5132564;27;20510;-71
2023/06/06 10:21:40;;;;;;;6.73;3.50;;;26.90;70.70;;;;;;5132503;27;20186;-71
2023/06/06 10:24:06;;;;;;;9.80;3.00;;;27.00;72.90;;;;;;5151395;27;20413;-71
2023/06/06 10:26:55;;;;;;;4.30;3.87;;;27.20;70.50;;;;;;5150452;27;20500;-71
2023/06/06 10:29:42;;;;;;;7.37;4.03;;;27.20;68.80;;;;;;5150543;27;20830;-72
2023/06/06 10:32:15;;;;;;;6.87;4.00;;;27.40;67.60;;;;;;5150775;27;20410;-72
2023/06/06 10:34:45;;;;;;;5.63;3.70;;;27.30;66.20;;;;;;5151444;27;20490;-71
2023/06/06 10:37:20;;;;;;;4.60;3.77;;;27.40;67.50;;;;;;5131862;27;20556;-71
2023/06/06 10:39:47;;;;;;;4.40;3.97;;;27.20;67.00;;;;;;5150516;27;20521;-71
2023/06/06 10:42:14;;;;;;;3.93;3.40;;;27.20;68.90;;;;;;5150333;27;20427;-72
2023/06/06 10:44:45;;;;;;;6.40;4.53;;;27.40;66.80;;;;;;5150904;27;20466;-72
2023/06/06 10:47:32;;;;;;;4.50;4.00;;;27.20;66.60;;;;;;5150083;27;20444;-73
2023/06/06 10:50:12;;;;;;;4.40;4.00;;;27.10;65.70;;;;;;5150471;27;21265;-73
2023/06/06 10:52:45;;;;;;;9.80;3.93;;;27.00;65.60;;;;;;5149895;27;20861;-72
2023/06/06 10:55:38;;;;;;;4.20;3.80;;;27.30;67.10;;;;;;5130910;27;20482;-72
2023/06/06 10:58:06;;;;;;;4.57;3.80;;;27.50;62.60;;;;;;5138840;27;20477;-72
2023/06/06 11:00:39;;;;;;;7.90;4.10;;;27.50;63.80;;;;;;5149849;27;20421;-72
2023/06/06 11:03:08;;;;;;;7.70;3.73;;;27.30;60.70;;;;;;5150050;27;20636;-71
2023/06/06 11:06:00;;;;;;;4.13;3.53;;;27.40;61.80;;;;;;5130958;27;20422;-71
2023/06/06 11:08:45;;;;;;;4.20;3.77;;;27.80;62.10;;;;;;5149511;27;20441;-73
2023/06/06 11:11:16;;;;;;;7.40;4.20;;;27.90;61.80;;;;;;5149657;27;20428;-72
2023/06/06 11:14:03;;;;;;;6.83;3.90;;;27.70;61.10;;;;;;5149925;27;20507;-71
2023/06/06 11:16:38;;;;;;;4.20;3.80;;;27.70;61.20;;;;;;5149353;27;20492;-71
2023/06/06 11:19:15;;;;;;;5.90;3.90;;;28.00;62.40;;;;;;5149790;27;20422;-71
2023/06/06 11:21:42;;;;;;;4.93;4.10;;;28.10;60.20;;;;;;5149932;27;20441;-71
2023/06/06 11:24:09;;;;;;;4.47;3.43;;;28.30;60.90;;;;;;5130769;27;20799;-71
2023/06/06 11:26:36;;;;;;;4.67;3.70;;;28.00;61.80;;;;;;5149420;27;20484;-71
2023/06/06 11:29:04;;;;;;;5.87;4.00;;;27.60;61.70;;;;;;5130547;27;20437;-71
2023/06/06 11:31:30;;;;;;;3.83;3.53;;;26.80;61.70;;;;;;5149396;27;20438;-72
2023/06/06 11:34:10;;;;;;;3.80;3.50;;;26.80;63.80;;;;;;5149500;27;20926;-72
2023/06/06 11:36:37;;;;;;;5.90;3.70;;;27.10;62.50;;;;;;5149062;27;20492;-73
2023/06/06 11:39:08;;;;;;;5.33;3.60;;;27.50;61.30;;;;;;5149378;27;20425;-72
2023/06/06 11:41:46;;;;;;;6.60;4.03;;;27.50;60.50;;;;;;5149585;27;20417;-72
2023/06/06 11:44:16;;;;;;;3.70;3.30;;;27.70;60.00;;;;;;5149839;27;20499;-72
2023/06/06 11:46:49;;;;;;;6.63;3.73;;;27.70;57.50;;;;;;5131144;27;20475;-72
2023/06/06 11:49:16;;;;;;;5.33;4.00;;;27.90;55.50;;;;;;5131086;27;20429;-72
2023/06/06 11:51:42;;;;;;;5.47;3.70;;;28.00;56.80;;;;;;5149854;27;20934;-72
2023/06/06 11:54:13;;;;;;;4.90;4.33;;;28.10;57.50;;;;;;5131239;27;20421;-72
2023/06/06 11:56:39;;;;;;;3.63;3.33;;;28.20;57.30;;;;;;5149677;27;20468;-73
2023/06/06 11:59:06;;;;;;;4.27;3.50;;;28.50;58.50;;;;;;5149800;27;20409;-72
2023/06/06 12:01:31;;;;;;;6.00;3.30;;;28.70;58.80;;;;;;5131069;27;20496;-72
2023/06/06 12:03:57;;;;;;;5.63;3.77;;;28.90;57.20;;;;;;5130824;27;20518;-72
2023/06/06 12:06:24;;;;;;;9.83;3.57;;;28.90;57.40;;;;;;5149377;27;20179;-72
2023/06/06 12:08:50;;;;;;;6.83;3.50;;;28.80;58.10;;;;;;5148880;27;20676;-72
2023/06/06 12:11:26;;;;;;;6.40;3.50;;;28.90;56.30;;;;;;5149189;27;20413;-72
2023/06/06 12:13:53;;;;;;;4.27;3.50;;;29.10;57.20;;;;;;5149238;27;20181;-72
2023/06/06 12:16:28;;;;;;;6.20;3.70;;;29.20;56.50;;;;;;5113263;27;20939;-72
2023/06/06 12:18:57;;;;;;;5.00;3.77;;;29.10;56.60;;;;;;5148829;27;20428;-72
2023/06/06 12:21:23;;;;;;;5.30;3.43;;;28.90;53.70;;;;;;5148880;27;20428;-72
2023/06/06 12:23:48;;;;;;;4.37;3.67;;;29.20;55.00;;;;;;5130548;27;20413;-72
2023/06/06 12:26:16;;;;;;;5.97;3.60;;;29.40;56.10;;;;;;5149156;27;20441;-72
2023/06/06 12:28:53;;;;;;;10.40;3.67;;;29.30;53.40;;;;;;5148583;27;20485;-72
2023/06/06 12:31:22;;;;;;;4.40;4.00;;;29.40;54.80;;;;;;5149457;27;20461;-73
2023/06/06 12:33:48;;;;;;;4.57;3.83;;;29.20;52.70;;;;;;5149237;27;20410;-72
2023/06/06 12:36:19;;;;;;;6.93;4.20;;;28.90;53.00;;;;;;5096260;27;20448;-71
2023/06/06 12:38:53;;;;;;;4.03;3.40;;;28.30;52.70;;;;;;5149413;27;20234;-72
2023/06/06 12:41:18;;;;;;;3.90;3.57;;;27.80;55.00;;;;;;5149314;27;20423;-72
2023/06/06 12:43:44;;;;;;;5.60;3.50;;;27.50;53.90;;;;;;5149228;27;20421;-72
2023/06/06 12:46:10;;;;;;;4.67;4.10;;;27.70;56.00;;;;;;5150205;27;20171;-72
2023/06/06 12:48:35;;;;;;;4.77;3.40;;;27.70;54.40;;;;;;5129924;27;20204;-72
2023/06/06 12:51:01;;;;;;;5.10;3.80;;;27.70;54.20;;;;;;5149663;27;20194;-72